Time,TemperatureF,DewpointF,PressureIn,WindDirection,WindDirectionDegrees,WindSpeedMPH,WindSpeedGustMPH,Humidity,HourlyPrecipIn,Conditions,Clouds,dailyrainin,SoftwareType,DateUTC
2014-04-23 00:11:00,47.0,42.0,30.07,SW,232,0.0,0.0,83,0.00,,,0.00,,2014-04-23 07:11:00,
2014-04-23 00:21:00,46.0,42.0,30.07,SW,232,0.0,0.0,85,0.00,,,0.00,,2014-04-23 07:21:00,
2014-04-23 00:52:00,47.0,43.0,30.06,SW,232,0.0,1.0,87,0.00,,,0.00,,2014-04-23 07:52:00,
2014-04-23 01:22:00,46.0,42.0,30.07,SW,232,0.0,0.0,87,0.00,,,0.00,,2014-04-23 08:22:00,
2014-04-23 01:52:00,45.0,42.0,30.06,SW,232,0.0,0.0,88,0.00,,,0.00,,2014-04-23 08:52:00,
2014-04-23 02:22:00,45.0,42.0,30.06,SW,232,0.0,0.0,89,0.00,,,0.00,,2014-04-23 09:22:00,
2014-04-23 02:43:00,45.0,42.0,30.06,SW,232,0.0,0.0,88,0.00,,,0.00,,2014-04-23 09:43:00,
2014-04-23 02:54:00,45.0,42.0,30.05,SW,232,0.0,0.0,88,0.00,,,0.00,,2014-04-23 09:54:00,
2014-04-23 03:23:00,44.0,41.0,30.06,SW,232,0.0,1.0,89,0.00,,,0.00,,2014-04-23 10:23:00,
2014-04-23 03:53:00,42.0,39.0,30.06,SW,232,0.0,0.0,90,0.00,,,0.00,,2014-04-23 10:53:00,
2014-04-23 04:22:00,42.0,40.0,30.07,SW,232,0.0,0.0,91,0.00,,,0.00,,2014-04-23 11:22:00,
2014-04-23 04:52:00,41.0,38.0,30.07,SW,232,0.0,0.0,90,0.00,,,0.00,,2014-04-23 11:52:00,
2014-04-23 05:22:00,40.0,38.0,30.07,SW,232,0.0,0.0,93,0.00,,,0.00,,2014-04-23 12:22:00,
2014-04-23 05:52:00,40.0,38.0,30.07,SW,232,0.0,0.0,94,0.00,,,0.00,,2014-04-23 12:52:00,
2014-04-23 06:22:00,40.0,38.0,30.08,SW,232,0.0,0.0,94,0.00,,,0.00,,2014-04-23 13:22:00,
2014-04-23 06:52:00,39.0,37.0,30.09,SW,232,0.0,0.0,94,0.00,,,0.00,,2014-04-23 13:52:00,
2014-04-23 07:22:00,40.0,39.0,30.09,SW,231,0.0,0.0,95,0.00,,,0.00,,2014-04-23 14:22:00,
2014-04-23 07:52:00,42.0,41.0,30.09,SW,232,0.0,0.0,96,0.00,,,0.00,,2014-04-23 14:52:00,
2014-04-23 08:22:00,46.0,44.0,30.10,SW,231,0.0,1.0,94,0.00,,,0.00,,2014-04-23 15:22:00,
2014-04-23 08:53:00,49.0,45.0,30.11,SW,231,0.0,1.0,86,0.00,,,0.00,,2014-04-23 15:53:00,
2014-04-23 09:23:00,54.0,46.0,30.11,SW,234,0.0,1.0,73,0.00,,,0.00,,2014-04-23 16:23:00,
2014-04-23 09:53:00,56.0,45.0,30.11,NNW,342,0.0,5.0,66,0.00,,,0.00,,2014-04-23 16:53:00,
2014-04-23 10:24:00,59.0,45.0,30.11,NNW,346,1.0,4.0,59,0.00,,,0.00,,2014-04-23 17:24:00,
2014-04-23 10:52:00,61.0,46.0,30.11,NNW,345,0.0,5.0,57,0.00,,,0.00,,2014-04-23 17:52:00,
2014-04-23 11:22:00,62.0,43.0,30.10,NNW,328,2.0,8.0,49,0.00,,,0.00,,2014-04-23 18:22:00,
2014-04-23 11:52:00,63.0,42.0,30.11,NNW,343,2.0,8.0,46,0.00,,,0.00,,2014-04-23 18:52:00,
2014-04-23 12:22:00,65.0,43.0,30.09,North,5,1.0,3.0,44,0.00,,,0.00,,2014-04-23 19:22:00,
2014-04-23 12:42:00,66.0,43.0,30.09,NNW,339,0.0,7.0,44,0.00,,,0.00,,2014-04-23 19:42:00,
2014-04-23 12:56:00,66.0,42.0,30.09,NW,313,1.0,6.0,42,0.00,,,0.00,,2014-04-23 19:56:00,
2014-04-23 13:21:00,68.0,39.0,30.08,NNW,342,1.0,9.0,35,0.00,,,0.00,,2014-04-23 20:21:00,
2014-04-23 13:52:00,69.0,39.0,30.07,NW,323,2.0,8.0,34,0.00,,,0.00,,2014-04-23 20:52:00,
2014-04-23 14:22:00,70.0,39.0,30.07,North,350,2.0,8.0,32,0.00,,,0.00,,2014-04-23 21:22:00,
2014-04-23 14:53:00,70.0,39.0,30.06,NW,321,2.0,8.0,32,0.00,,,0.00,,2014-04-23 21:53:00,
2014-04-23 15:23:00,71.0,40.0,30.05,NW,316,4.0,8.0,32,0.00,,,0.00,,2014-04-23 22:23:00,
2014-04-23 15:54:00,71.0,39.0,30.04,North,355,1.0,5.0,31,0.00,,,0.00,,2014-04-23 22:54:00,
2014-04-23 16:22:00,71.0,40.0,30.03,NNW,334,0.0,5.0,33,0.00,,,0.00,,2014-04-23 23:22:00,
2014-04-23 16:53:00,71.0,38.0,30.03,NNW,333,0.0,5.0,30,0.00,,,0.00,,2014-04-23 23:53:00,
2014-04-23 17:22:00,71.0,37.0,30.02,NNW,336,1.0,4.0,29,0.00,,,0.00,,2014-04-24 00:22:00,
2014-04-23 17:52:00,71.0,37.0,30.02,NNW,343,4.0,8.0,29,0.00,,,0.00,,2014-04-24 00:52:00,
2014-04-23 18:21:00,71.0,38.0,30.01,NNW,336,1.0,6.0,30,0.00,,,0.00,,2014-04-24 01:21:00,
2014-04-23 18:52:00,70.0,39.0,30.01,NNW,338,0.0,3.0,32,0.00,,,0.00,,2014-04-24 01:52:00,
2014-04-23 19:22:00,67.0,46.0,30.01,WSW,257,3.0,6.0,47,0.00,,,0.00,,2014-04-24 02:22:00,
2014-04-23 20:21:00,63.0,48.0,30.02,WSW,257,3.0,6.0,59,0.00,,,0.00,,2014-04-24 03:21:00,
2014-04-23 20:54:00,62.0,48.0,30.03,WSW,254,2.0,5.0,61,0.00,,,0.00,,2014-04-24 03:54:00,
2014-04-23 21:23:00,60.0,48.0,30.03,WSW,255,1.0,5.0,65,0.00,,,0.00,,2014-04-24 04:23:00,
2014-04-23 21:53:00,59.0,48.0,30.03,WSW,255,2.0,4.0,68,0.00,,,0.00,,2014-04-24 04:53:00,